Time;durP1;ratioP1;P1;durP2;ratioP2;P2;SDS_P1;SDS_P2;PMS_P1;PMS_P2;Temp;Humidity;BMP_temperature;BMP_pressure;BME280_temperature;BME280_humidity;BME280_pressure;Samples;Min_cycle;Max_cycle;Signal;HPM_P1;HPM_P2
2023/01/01 00:01:39;;;;;;;;;;;;;;;;;;5070824;28;20400;-61
2023/01/01 00:04:04;;;;;;;;;;;;;;;;;;5062679;28;19913;-61
2023/01/01 00:06:29;;;;;;;;;;;;;;;;;;5082485;28;20262;-61
2023/01/01 00:11:38;;;;;;;;;;;;;;;;;;5060236;28;19962;-61
2023/01/01 00:14:03;;;;;;;;;;;;;;;;;;5066110;28;19912;-61
2023/01/01 00:16:28;;;;;;;;;;;;;;;;;;5065948;28;19920;-62
2023/01/01 00:18:53;;;;;;;;;;;;;;;;;;5057401;28;19925;-60
2023/01/01 00:21:18;;;;;;;;;;;;;;;;;;5065443;28;19934;-61
2023/01/01 00:23:43;;;;;;;;;;;;;;;;;;5072233;28;20470;-61
2023/01/01 00:26:08;;;;;;;;;;;;;;;;;;5073409;28;20353;-61
2023/01/01 00:28:34;;;;;;;;;;;;;;;;;;5073016;28;20287;-61
2023/01/01 00:30:59;;;;;;;;;;;;;;;;;;5063226;28;20013;-61
2023/01/01 00:33:24;;;;;;;;;;;;;;;;;;5075159;28;19919;-61
2023/01/01 00:35:49;;;;;;;;;;;;;;;;;;5069774;28;19913;-62
2023/01/01 00:38:14;;;;;;;;;;;;;;;;;;5068040;28;20007;-61
2023/01/01 00:40:39;;;;;;;;;;;;;;;;;;5067779;28;19930;-62
2023/01/01 00:43:04;;;;;;;;;;;;;;;;;;5070408;28;20001;-61
2023/01/01 00:45:30;;;;;;;;;;;;;;;;;;5068251;28;19916;-62
2023/01/01 00:47:55;;;;;;;;;;;;;;;;;;5071990;28;19962;-62
2023/01/01 00:50:20;;;;;;;;;;;;;;;;;;5068868;28;19917;-62
2023/01/01 00:52:45;;;;;;;;;;;;;;;;;;5074059;28;19912;-61
2023/01/01 00:55:10;;;;;;;;;;;;;;;;;;5101886;28;19912;-62
2023/01/01 00:57:36;;;;;;;;;;;;;;;;;;5072091;28;19919;-61
2023/01/01 01:00:01;;;;;;;;;;;;;;;;;;5069793;28;19982;-62
2023/01/01 01:02:26;;;;;;;;;;;;;;;;;;5067550;28;20280;-61
2023/01/01 01:04:51;;;;;;;;;;;;;;;;;;5074284;28;19913;-62
2023/01/01 01:07:16;;;;;;;;;;;;;;;;;;5063249;28;19913;-62
2023/01/01 01:09:41;;;;;;;;;;;;;;;;;;5069615;28;19974;-62
2023/01/01 01:12:06;;;;;;;;;;;;;;;;;;5071085;28;20015;-61
2023/01/01 01:14:31;;;;;;;;;;;;;;;;;;5072702;28;19912;-61
2023/01/01 01:16:57;;;;;;;;;;;;;;;;;;5067036;28;19935;-62
2023/01/01 01:19:24;;;;;;;;;;;;;;;;;;5071501;28;19917;-62
2023/01/01 01:21:50;;;;;;;;;;;;;;;;;;5098919;27;19908;-61
2023/01/01 01:24:16;;;;;;;;;;;;;;;;;;5071566;28;20428;-62
2023/01/01 01:26:41;;;;;;;;;;;;;;;;;;5073830;28;20018;-62
2023/01/01 01:29:06;;;;;;;;;;;;;;;;;;5072057;28;19943;-62
2023/01/01 01:31:31;;;;;;;;;;;;;;;;;;5104931;28;19913;-62
2023/01/01 01:33:56;;;;;;;;;;;;;;;;;;5070863;28;19993;-61
2023/01/01 01:36:21;;;;;;;;;;;;;;;;;;5070058;28;20396;-62
2023/01/01 01:38:46;;;;;;;;;;;;;;;;;;5067441;28;20024;-62
2023/01/01 01:41:11;;;;;;;;;;;;;;;;;;5063768;28;19921;-62
2023/01/01 01:43:37;;;;;;;;;;;;;;;;;;5058146;28;20357;-61
2023/01/01 01:46:02;;;;;;;;;;;;;;;;;;5067391;28;19922;-62
2023/01/01 01:48:27;;;;;;;;;;;;;;;;;;5071602;28;20023;-62
2023/01/01 01:50:54;;;;;;;;;;;;;;;;;;5071302;28;20335;-61
2023/01/01 01:53:22;;;;;;;;;;;;;;;;;;5073133;28;20089;-62
2023/01/01 01:55:47;;;;;;;;;;;;;;;;;;5070711;28;19923;-62
2023/01/01 01:58:13;;;;;;;;;;;;;;;;;;5068778;28;19913;-61
2023/01/01 02:00:38;;;;;;;;;;;;;;;;;;5068527;28;19996;-62
2023/01/01 02:03:03;;;;;;;;;;;;;;;;;;5089450;28;19913;-62
2023/01/01 02:05:28;;;;;;;;;;;;;;;;;;5070675;28;19916;-62
2023/01/01 02:07:53;;;;;;;;;;;;;;;;;;5064562;28;20015;-62
2023/01/01 02:10:18;;;;;;;;;;;;;;;;;;5071291;28;19975;-62
2023/01/01 02:12:44;;;;;;;;;;;;;;;;;;5073183;28;20324;-62
2023/01/01 02:15:09;;;;;;;;;;;;;;;;;;5067710;28;20031;-61
2023/01/01 02:17:34;;;;;;;;;;;;;;;;;;5068615;28;19913;-61
2023/01/01 02:19:59;;;;;;;;;;;;;;;;;;5071702;28;19924;-62
2023/01/01 02:22:24;;;;;;;;;;;;;;;;;;5069259;28;19935;-62
2023/01/01 02:24:50;;;;;;;;;;;;;;;;;;5071829;28;19912;-62
2023/01/01 02:27:15;;;;;;;;;;;;;;;;;;5069024;28;19913;-61
2023/01/01 02:29:40;;;;;;;;;;;;;;;;;;5072607;28;20011;-62
2023/01/01 02:32:05;;;;;;;;;;;;;;;;;;5103595;28;19924;-62
2023/01/01 02:34:30;;;;;;;;;;;;;;;;;;5071983;28;19917;-62
2023/01/01 02:36:55;;;;;;;;;;;;;;;;;;5070880;28;19920;-62
2023/01/01 02:39:20;;;;;;;;;;;;;;;;;;5057729;28;20388;-62
2023/01/01 02:41:45;;;;;;;;;;;;;;;;;;5099340;28;19913;-61
2023/01/01 02:44:11;;;;;;;;;;;;;;;;;;5071351;28;20226;-61
2023/01/01 02:46:36;;;;;;;;;;;;;;;;;;5067621;28;20387;-61
2023/01/01 02:49:01;;;;;;;;;;;;;;;;;;5070031;28;20327;-61
2023/01/01 02:51:26;;;;;;;;;;;;;;;;;;5068495;28;20332;-61
2023/01/01 02:53:52;;;;;;;;;;;;;;;;;;5068060;28;19917;-61
2023/01/01 02:56:17;;;;;;;;;;;;;;;;;;5067725;28;19919;-61
2023/01/01 03:01:26;;;;;;;;;;;;;;;;;;5057904;28;19958;-61
2023/01/01 03:03:51;;;;;;;;;;;;;;;;;;5071804;28;20331;-61
2023/01/01 03:06:22;;;;;;;;;;;;;;;;;;5077562;28;20272;-62
2023/01/01 03:08:47;;;;;;;;;;;;;;;;;;5069008;28;19956;-62
2023/01/01 03:11:12;;;;;;;;;;;;;;;;;;5070144;28;19978;-62
2023/01/01 03:13:38;;;;;;;;;;;;;;;;;;5095232;28;20266;-61
2023/01/01 03:16:03;;;;;;;;;;;;;;;;;;5069232;28;20284;-62
2023/01/01 03:18:28;;;;;;;;;;;;;;;;;;5068487;28;20011;-62
2023/01/01 03:20:53;;;;;;;;;;;;;;;;;;5070837;28;19919;-62
2023/01/01 03:23:18;;;;;;;;;;;;;;;;;;5072203;28;19913;-61
2023/01/01 03:25:43;;;;;;;;;;;;;;;;;;5069867;28;19951;-62
2023/01/01 03:28:09;;;;;;;;;;;;;;;;;;5071475;28;19977;-61
2023/01/01 03:30:34;;;;;;;;;;;;;;;;;;5074632;28;19977;-61
2023/01/01 03:32:59;;;;;;;;;;;;;;;;;;5070502;28;20014;-61
2023/01/01 03:35:24;;;;;;;;;;;;;;;;;;5068049;28;19913;-62
2023/01/01 03:37:49;;;;;;;;;;;;;;;;;;5061406;28;19969;-61
2023/01/01 03:40:14;;;;;;;;;;;;;;;;;;5069282;28;19919;-61
2023/01/01 03:42:39;;;;;;;;;;;;;;;;;;5070961;28;20339;-61
2023/01/01 03:45:05;;;;;;;;;;;;;;;;;;5068571;28;20444;-61
2023/01/01 03:47:30;;;;;;;;;;;;;;;;;;5068764;28;19916;-61
2023/01/01 03:49:55;;;;;;;;;;;;;;;;;;5070785;28;19912;-62
2023/01/01 03:52:20;;;;;;;;;;;;;;;;;;5063212;28;19948;-62
2023/01/01 03:54:45;;;;;;;;;;;;;;;;;;5062690;28;20361;-62
2023/01/01 03:57:10;;;;;;;;;;;;;;;;;;5068388;28;19917;-61
2023/01/01 03:59:35;;;;;;;;;;;;;;;;;;5066454;28;19913;-62
2023/01/01 04:02:01;;;;;;;;;;;;;;;;;;5070216;28;19912;-61
2023/01/01 04:04:26;;;;;;;;;;;;;;;;;;5102539;28;19956;-62
2023/01/01 04:06:51;;;;;;;;;;;;;;;;;;5067476;28;19920;-61
2023/01/01 04:09:16;;;;;;;;;;;;;;;;;;5074612;28;19959;-61
2023/01/01 04:14:25;;;;;;;;;;;;;;;;;;5070724;28;19918;-62
2023/01/01 04:16:50;;;;;;;;;;;;;;;;;;5067033;28;20011;-62
2023/01/01 04:19:15;;;;;;;;;;;;;;;;;;5069907;28;19916;-62
2023/01/01 04:21:41;;;;;;;;;;;;;;;;;;5069266;28;20249;-62
2023/01/01 04:24:06;;;;;;;;;;;;;;;;;;5102156;28;19912;-62
2023/01/01 04:26:31;;;;;;;;;;;;;;;;;;5070795;28;19927;-62
2023/01/01 04:28:56;;;;;;;;;;;;;;;;;;5100675;28;19928;-62
2023/01/01 04:31:21;;;;;;;;;;;;;;;;;;5069997;28;19927;-62
2023/01/01 04:33:46;;;;;;;;;;;;;;;;;;5070048;28;20399;-62
2023/01/01 04:36:11;;;;;;;;;;;;;;;;;;5102383;28;19967;-62
2023/01/01 04:38:36;;;;;;;;;;;;;;;;;;5076791;28;19923;-62
2023/01/01 04:41:02;;;;;;;;;;;;;;;;;;5058605;28;19913;-62
2023/01/01 04:43:27;;;;;;;;;;;;;;;;;;5063412;28;19951;-62
2023/01/01 04:45:52;;;;;;;;;;;;;;;;;;5068994;28;20364;-62
2023/01/01 04:48:17;;;;;;;;;;;;;;;;;;5076622;28;19981;-62
2023/01/01 04:50:42;;;;;;;;;;;;;;;;;;5061649;28;19917;-62
2023/01/01 04:53:07;;;;;;;;;;;;;;;;;;5070079;28;20377;-62
2023/01/01 04:55:32;;;;;;;;;;;;;;;;;;5068287;28;20392;-62
2023/01/01 04:57:58;;;;;;;;;;;;;;;;;;5071051;28;20011;-62
2023/01/01 05:00:23;;;;;;;;;;;;;;;;;;5067771;28;19951;-62
2023/01/01 05:02:48;;;;;;;;;;;;;;;;;;5070493;28;19920;-62
2023/01/01 05:05:13;;;;;;;;;;;;;;;;;;5064837;28;19962;-62
2023/01/01 05:07:38;;;;;;;;;;;;;;;;;;5068913;28;20009;-62
2023/01/01 05:10:03;;;;;;;;;;;;;;;;;;5069754;28;19912;-60
2023/01/01 05:12:28;;;;;;;;;;;;;;;;;;5065891;28;19912;-60
2023/01/01 05:14:53;;;;;;;;;;;;;;;;;;5073512;28;20121;-60
2023/01/01 05:17:19;;;;;;;;;;;;;;;;;;5073499;28;19985;-61
2023/01/01 05:19:44;;;;;;;;;;;;;;;;;;5073454;28;19919;-60
2023/01/01 05:22:09;;;;;;;;;;;;;;;;;;5071585;28;19958;-61
2023/01/01 05:24:36;;;;;;;;;;;;;;;;;;5104764;28;19916;-60
2023/01/01 05:27:01;;;;;;;;;;;;;;;;;;5065335;28;19958;-60
2023/01/01 05:29:26;;;;;;;;;;;;;;;;;;5073667;28;19920;-60
2023/01/01 05:31:52;;;;;;;;;;;;;;;;;;5056439;28;19913;-60
2023/01/01 05:34:17;;;;;;;;;;;;;;;;;;5073732;28;19913;-61
2023/01/01 05:36:42;;;;;;;;;;;;;;;;;;5073673;28;20299;-61
2023/01/01 05:39:07;;;;;;;;;;;;;;;;;;5063058;28;19913;-61
2023/01/01 05:41:35;;;;;;;;;;;;;;;;;;5070469;28;19920;-61
2023/01/01 05:44:01;;;;;;;;;;;;;;;;;;5068274;28;19919;-61
2023/01/01 05:46:26;;;;;;;;;;;;;;;;;;5072179;28;20369;-61
2023/01/01 05:48:51;;;;;;;;;;;;;;;;;;5072471;28;20373;-61
2023/01/01 05:51:16;;;;;;;;;;;;;;;;;;5071039;28;19913;-61
2023/01/01 05:53:43;;;;;;;;;;;;;;;;;;5068391;28;20393;-61
2023/01/01 05:56:08;;;;;;;;;;;;;;;;;;5072907;28;19963;-61
2023/01/01 05:58:33;;;;;;;;;;;;;;;;;;5066003;28;20003;-61
2023/01/01 06:00:58;;;;;;;;;;;;;;;;;;5073079;28;20316;-61
2023/01/01 06:03:23;;;;;;;;;;;;;;;;;;5070546;28;20370;-61
2023/01/01 06:05:49;;;;;;;;;;;;;;;;;;5105158;28;19919;-61
2023/01/01 06:08:14;;;;;;;;;;;;;;;;;;5073859;28;20331;-61
2023/01/01 06:10:39;;;;;;;;;;;;;;;;;;5067814;28;19919;-61
2023/01/01 06:13:04;;;;;;;;;;;;;;;;;;5071493;28;19920;-61
2023/01/01 06:15:29;;;;;;;;;;;;;;;;;;5062561;28;19912;-61
2023/01/01 06:17:54;;;;;;;;;;;;;;;;;;5071324;28;19974;-61
2023/01/01 06:20:19;;;;;;;;;;;;;;;;;;5072428;28;19912;-61
2023/01/01 06:22:44;;;;;;;;;;;;;;;;;;5072478;28;19912;-62
2023/01/01 06:25:10;;;;;;;;;;;;;;;;;;5066671;28;20388;-62
2023/01/01 06:27:35;;;;;;;;;;;;;;;;;;5066882;28;19913;-62
2023/01/01 06:30:00;;;;;;;;;;;;;;;;;;5071946;28;19913;-62
2023/01/01 06:32:25;;;;;;;;;;;;;;;;;;5102511;28;19913;-61
2023/01/01 06:34:50;;;;;;;;;;;;;;;;;;5071043;28;19995;-61
2023/01/01 06:37:15;;;;;;;;;;;;;;;;;;5063701;28;20380;-61
2023/01/01 06:39:40;;;;;;;;;;;;;;;;;;5071888;28;19913;-61
2023/01/01 06:42:05;;;;;;;;;;;;;;;;;;5071599;28;19916;-61
2023/01/01 06:44:31;;;;;;;;;;;;;;;;;;5071347;28;19920;-62
2023/01/01 06:46:56;;;;;;;;;;;;;;;;;;5070019;28;19913;-61
2023/01/01 06:49:21;;;;;;;;;;;;;;;;;;5067149;28;19923;-61
2023/01/01 06:51:46;;;;;;;;;;;;;;;;;;5072253;28;19914;-61
2023/01/01 06:54:11;;;;;;;;;;;;;;;;;;5062957;28;19913;-61
2023/01/01 06:56:36;;;;;;;;;;;;;;;;;;5068905;28;20015;-61
2023/01/01 06:59:02;;;;;;;;;;;;;;;;;;5071818;28;19916;-61
2023/01/01 07:01:27;;;;;;;;;;;;;;;;;;5071025;28;19913;-62
2023/01/01 07:03:52;;;;;;;;;;;;;;;;;;5065962;28;20003;-61
2023/01/01 07:06:17;;;;;;;;;;;;;;;;;;5065561;28;19912;-62
2023/01/01 07:08:42;;;;;;;;;;;;;;;;;;5062605;28;19963;-61
2023/01/01 07:11:07;;;;;;;;;;;;;;;;;;5071809;28;19916;-61
2023/01/01 07:13:32;;;;;;;;;;;;;;;;;;5070523;28;19916;-61
2023/01/01 07:15:58;;;;;;;;;;;;;;;;;;5069208;28;19950;-61
2023/01/01 07:18:23;;;;;;;;;;;;;;;;;;5068692;28;19912;-61
2023/01/01 07:20:48;;;;;;;;;;;;;;;;;;5071082;28;19921;-61
2023/01/01 07:23:13;;;;;;;;;;;;;;;;;;5071362;28;19919;-62
2023/01/01 07:25:41;;;;;;;;;;;;;;;;;;5067856;28;20301;-62
2023/01/01 07:28:06;;;;;;;;;;;;;;;;;;5071024;28;19975;-61
2023/01/01 07:30:31;;;;;;;;;;;;;;;;;;5071604;28;19951;-62
2023/01/01 07:32:56;;;;;;;;;;;;;;;;;;5069075;28;19916;-61
2023/01/01 07:35:21;;;;;;;;;;;;;;;;;;5071087;28;19912;-61
2023/01/01 07:37:46;;;;;;;;;;;;;;;;;;5067246;28;19950;-62
2023/01/01 07:40:11;;;;;;;;;;;;;;;;;;5071266;28;19913;-61
2023/01/01 07:42:36;;;;;;;;;;;;;;;;;;5073539;28;20375;-61
2023/01/01 07:45:02;;;;;;;;;;;;;;;;;;5070854;28;19917;-61
2023/01/01 07:47:27;;;;;;;;;;;;;;;;;;5067767;28;20011;-61
2023/01/01 07:49:52;;;;;;;;;;;;;;;;;;5069605;28;20009;-62
2023/01/01 07:52:17;;;;;;;;;;;;;;;;;;5062338;28;19919;-61
2023/01/01 07:54:42;;;;;;;;;;;;;;;;;;5064282;28;20015;-61
2023/01/01 07:57:07;;;;;;;;;;;;;;;;;;5060604;28;20361;-60
2023/01/01 07:59:32;;;;;;;;;;;;;;;;;;5067082;28;20410;-61
2023/01/01 08:01:58;;;;;;;;;;;;;;;;;;5069482;28;19912;-61
2023/01/01 08:04:23;;;;;;;;;;;;;;;;;;5071006;28;20015;-61
2023/01/01 08:06:48;;;;;;;;;;;;;;;;;;5070925;28;19920;-61
2023/01/01 08:09:13;;;;;;;;;;;;;;;;;;5060707;28;19971;-61
2023/01/01 08:11:38;;;;;;;;;;;;;;;;;;5071325;28;19913;-61
2023/01/01 08:14:03;;;;;;;;;;;;;;;;;;5067321;28;20449;-61
2023/01/01 08:16:28;;;;;;;;;;;;;;;;;;5068195;28;19974;-61
2023/01/01 08:18:53;;;;;;;;;;;;;;;;;;5070558;28;20007;-61
2023/01/01 08:21:19;;;;;;;;;;;;;;;;;;5068074;28;20351;-61
2023/01/01 08:23:44;;;;;;;;;;;;;;;;;;5070034;28;19912;-61
2023/01/01 08:26:09;;;;;;;;;;;;;;;;;;5071099;28;19924;-61
2023/01/01 08:28:34;;;;;;;;;;;;;;;;;;5070676;28;20326;-61
2023/01/01 08:30:59;;;;;;;;;;;;;;;;;;5100107;28;19961;-61
2023/01/01 08:33:25;;;;;;;;;;;;;;;;;;5070382;28;19958;-61
2023/01/01 08:35:50;;;;;;;;;;;;;;;;;;5060125;28;19913;-61
2023/01/01 08:38:15;;;;;;;;;;;;;;;;;;5070695;28;19919;-61
2023/01/01 08:40:40;;;;;;;;;;;;;;;;;;5070269;28;19922;-61
2023/01/01 08:43:05;;;;;;;;;;;;;;;;;;5069406;28;20038;-61
2023/01/01 08:45:30;;;;;;;;;;;;;;;;;;5074619;28;19919;-61
2023/01/01 08:47:55;;;;;;;;;;;;;;;;;;5071694;28;19927;-62
2023/01/01 08:50:21;;;;;;;;;;;;;;;;;;5063451;28;19924;-60
2023/01/01 08:52:46;;;;;;;;;;;;;;;;;;5068992;28;20367;-60
2023/01/01 08:55:11;;;;;;;;;;;;;;;;;;5072521;28;20254;-60
2023/01/01 08:57:36;;;;;;;;;;;;;;;;;;5079367;28;19912;-61
2023/01/01 09:00:01;;;;;;;;;;;;;;;;;;5066646;28;19916;-60
2023/01/01 09:02:26;;;;;;;;;;;;;;;;;;5070818;28;19971;-61
2023/01/01 09:04:52;;;;;;;;;;;;;;;;;;5072455;28;19917;-60
2023/01/01 09:07:17;;;;;;;;;;;;;;;;;;5071589;28;19916;-61
2023/01/01 09:09:42;;;;;;;;;;;;;;;;;;5066932;28;20362;-61
2023/01/01 09:12:08;;;;;;;;;;;;;;;;;;5073718;28;19917;-61
2023/01/01 09:14:33;;;;;;;;;;;;;;;;;;5069332;28;20011;-61
2023/01/01 09:16:58;;;;;;;;;;;;;;;;;;5072165;28;20345;-61
2023/01/01 09:19:23;;;;;;;;;;;;;;;;;;5066047;28;19912;-61
2023/01/01 09:21:49;;;;;;;;;;;;;;;;;;5072956;28;20003;-61
2023/01/01 09:24:14;;;;;;;;;;;;;;;;;;5068954;28;19961;-61
2023/01/01 09:26:39;;;;;;;;;;;;;;;;;;5064412;28;19912;-61
2023/01/01 09:29:04;;;;;;;;;;;;;;;;;;5066275;28;19927;-61
2023/01/01 09:31:29;;;;;;;;;;;;;;;;;;5071035;28;20401;-61
2023/01/01 09:33:54;;;;;;;;;;;;;;;;;;5072324;28;20054;-60
2023/01/01 09:36:19;;;;;;;;;;;;;;;;;;5065411;28;19916;-60
2023/01/01 09:38:44;;;;;;;;;;;;;;;;;;5072376;28;19920;-60
2023/01/01 09:41:10;;;;;;;;;;;;;;;;;;5066872;28;19923;-60
2023/01/01 09:43:35;;;;;;;;;;;;;;;;;;5068343;28;20300;-61
2023/01/01 09:46:00;;;;;;;;;;;;;;;;;;5069129;28;19920;-60
2023/01/01 09:48:25;;;;;;;;;;;;;;;;;;5070328;28;19924;-61
2023/01/01 09:50:50;;;;;;;;;;;;;;;;;;5068455;28;19920;-61
2023/01/01 09:53:15;;;;;;;;;;;;;;;;;;5081123;28;20318;-61
2023/01/01 09:55:40;;;;;;;;;;;;;;;;;;5066768;28;20385;-61
2023/01/01 09:58:06;;;;;;;;;;;;;;;;;;5090585;28;19912;-61
2023/01/01 10:00:31;;;;;;;;;;;;;;;;;;5059895;28;19913;-62
2023/01/01 10:02:56;;;;;;;;;;;;;;;;;;5069237;28;19908;-61
2023/01/01 10:05:21;;;;;;;;;;;;;;;;;;5064320;28;19912;-62
2023/01/01 10:07:46;;;;;;;;;;;;;;;;;;5069721;28;19966;-62
2023/01/01 10:10:11;;;;;;;;;;;;;;;;;;5071017;28;19912;-62
2023/01/01 10:12:36;;;;;;;;;;;;;;;;;;5072143;28;20007;-61
2023/01/01 10:15:02;;;;;;;;;;;;;;;;;;5061313;28;19920;-62
2023/01/01 10:17:27;;;;;;;;;;;;;;;;;;5070915;28;19931;-61
2023/01/01 10:19:52;;;;;;;;;;;;;;;;;;5070102;28;19971;-62
2023/01/01 10:22:17;;;;;;;;;;;;;;;;;;5072980;28;19936;-62
2023/01/01 10:24:42;;;;;;;;;;;;;;;;;;5061756;28;20462;-62
2023/01/01 10:27:07;;;;;;;;;;;;;;;;;;5069084;28;20408;-64
2023/01/01 10:29:33;;;;;;;;;;;;;;;;;;5070749;28;19927;-62
2023/01/01 10:31:58;;;;;;;;;;;;;;;;;;5066235;28;19920;-62
2023/01/01 10:34:24;;;;;;;;;;;;;;;;;;5072404;28;19948;-62
2023/01/01 10:36:49;;;;;;;;;;;;;;;;;;5077355;28;19920;-62
2023/01/01 10:39:15;;;;;;;;;;;;;;;;;;5073102;28;20434;-62
2023/01/01 10:41:40;;;;;;;;;;;;;;;;;;5070592;28;20384;-62
2023/01/01 10:44:05;;;;;;;;;;;;;;;;;;5069368;28;19912;-62
2023/01/01 10:46:30;;;;;;;;;;;;;;;;;;5068088;28;19916;-61
2023/01/01 10:48:55;;;;;;;;;;;;;;;;;;5062894;28;20364;-62
2023/01/01 10:51:23;;;;;;;;;;;;;;;;;;5075236;28;19920;-62
2023/01/01 10:53:48;;;;;;;;;;;;;;;;;;5070260;28;20363;-62
2023/01/01 10:56:13;;;;;;;;;;;;;;;;;;5069223;28;19991;-62
2023/01/01 10:58:39;;;;;;;;;;;;;;;;;;5071028;28;19912;-62
2023/01/01 11:01:04;;;;;;;;;;;;;;;;;;5062266;28;20361;-62
2023/01/01 11:03:29;;;;;;;;;;;;;;;;;;5070600;28;19912;-62
2023/01/01 11:05:54;;;;;;;;;;;;;;;;;;5068623;28;19912;-62
2023/01/01 11:08:19;;;;;;;;;;;;;;;;;;5066052;28;20360;-62
2023/01/01 11:10:44;;;;;;;;;;;;;;;;;;5072257;28;19909;-62
2023/01/01 11:13:09;;;;;;;;;;;;;;;;;;5072857;28;19908;-62
2023/01/01 11:15:35;;;;;;;;;;;;;;;;;;5062373;28;19935;-62
2023/01/01 11:18:00;;;;;;;;;;;;;;;;;;5071162;28;20428;-62
2023/01/01 11:20:25;;;;;;;;;;;;;;;;;;5067874;28;19913;-62
2023/01/01 11:22:51;;;;;;;;;;;;;;;;;;5068028;28;19912;-62
2023/01/01 11:25:16;;;;;;;;;;;;;;;;;;5069261;28;19916;-62
2023/01/01 11:27:42;;;;;;;;;;;;;;;;;;5074910;28;19923;-62
2023/01/01 11:30:07;;;;;;;;;;;;;;;;;;5089668;28;20025;-62
2023/01/01 11:32:32;;;;;;;;;;;;;;;;;;5084763;28;19965;-62
2023/01/01 11:34:57;;;;;;;;;;;;;;;;;;5069998;28;19919;-63
2023/01/01 11:37:22;;;;;;;;;;;;;;;;;;5071939;28;19923;-63
2023/01/01 11:39:47;;;;;;;;;;;;;;;;;;5070371;28;20308;-61
2023/01/01 11:42:12;;;;;;;;;;;;;;;;;;5070439;28;19999;-61
2023/01/01 11:44:38;;;;;;;;;;;;;;;;;;5069671;28;19913;-61
2023/01/01 11:47:03;;;;;;;;;;;;;;;;;;5066539;28;19912;-61
2023/01/01 11:49:28;;;;;;;;;;;;;;;;;;5071492;28;19923;-61
2023/01/01 11:51:53;;;;;;;;;;;;;;;;;;5072396;28;19919;-61
2023/01/01 11:54:18;;;;;;;;;;;;;;;;;;5071051;28;19917;-61
2023/01/01 11:56:43;;;;;;;;;;;;;;;;;;5070753;28;19920;-61
2023/01/01 11:59:08;;;;;;;;;;;;;;;;;;5072747;28;20428;-61
2023/01/01 12:01:33;;;;;;;;;;;;;;;;;;5071660;28;20417;-61
2023/01/01 12:03:59;;;;;;;;;;;;;;;;;;5064725;28;19916;-61
2023/01/01 12:06:24;;;;;;;;;;;;;;;;;;5081125;28;19920;-61
2023/01/01 12:08:49;;;;;;;;;;;;;;;;;;5071304;28;19971;-61
2023/01/01 12:11:14;;;;;;;;;;;;;;;;;;5069904;28;19912;-61
2023/01/01 12:13:39;;;;;;;;;;;;;;;;;;5097005;28;20209;-62
2023/01/01 12:16:04;;;;;;;;;;;;;;;;;;5066659;28;19975;-62
2023/01/01 12:18:30;;;;;;;;;;;;;;;;;;5069093;28;19917;-61
2023/01/01 12:20:55;;;;;;;;;;;;;;;;;;5073872;28;19913;-61
2023/01/01 12:23:20;;;;;;;;;;;;;;;;;;5076189;28;19962;-61
2023/01/01 12:25:45;;;;;;;;;;;;;;;;;;5073995;28;19924;-61
2023/01/01 12:28:10;;;;;;;;;;;;;;;;;;5075695;28;19927;-62
2023/01/01 12:30:36;;;;;;;;;;;;;;;;;;5073954;28;19920;-61
2023/01/01 12:33:02;;;;;;;;;;;;;;;;;;5075807;28;20273;-62
2023/01/01 12:35:27;;;;;;;;;;;;;;;;;;5075869;28;19923;-61
2023/01/01 12:37:52;;;;;;;;;;;;;;;;;;5075315;28;19917;-61
2023/01/01 12:40:17;;;;;;;;;;;;;;;;;;5072789;28;19908;-61
2023/01/01 12:42:43;;;;;;;;;;;;;;;;;;5075886;28;19915;-61
2023/01/01 12:45:08;;;;;;;;;;;;;;;;;;5069574;28;20080;-61
2023/01/01 12:47:33;;;;;;;;;;;;;;;;;;5067682;28;19943;-61
2023/01/01 12:49:58;;;;;;;;;;;;;;;;;;5075564;28;19912;-61
2023/01/01 12:52:23;;;;;;;;;;;;;;;;;;5074587;28;19915;-61
2023/01/01 12:54:48;;;;;;;;;;;;;;;;;;5078685;28;20215;-61
2023/01/01 12:57:13;;;;;;;;;;;;;;;;;;5074469;28;19916;-61
2023/01/01 12:59:39;;;;;;;;;;;;;;;;;;5074357;28;19919;-61
2023/01/01 13:02:04;;;;;;;;;;;;;;;;;;5075201;28;19912;-61
2023/01/01 13:04:29;;;;;;;;;;;;;;;;;;5074698;28;20015;-62
2023/01/01 13:07:02;;;;;;;;;;;;;;;;;;5075026;28;19977;-61
2023/01/01 13:09:27;;;;;;;;;;;;;;;;;;5085732;28;19916;-61
2023/01/01 13:11:52;;;;;;;;;;;;;;;;;;5081654;28;19919;-61
2023/01/01 13:14:17;;;;;;;;;;;;;;;;;;5095761;28;19908;-61
2023/01/01 13:16:42;;;;;;;;;;;;;;;;;;5072309;28;19920;-61
2023/01/01 13:19:08;;;;;;;;;;;;;;;;;;5070449;28;19921;-61
2023/01/01 13:21:33;;;;;;;;;;;;;;;;;;5072806;28;20391;-61
2023/01/01 13:23:58;;;;;;;;;;;;;;;;;;5087685;28;19955;-61
2023/01/01 13:26:23;;;;;;;;;;;;;;;;;;5074669;28;19913;-61
2023/01/01 13:28:48;;;;;;;;;;;;;;;;;;5073682;28;19928;-61
2023/01/01 13:31:14;;;;;;;;;;;;;;;;;;5075562;28;19960;-61
2023/01/01 13:33:39;;;;;;;;;;;;;;;;;;5075710;28;19919;-61
2023/01/01 13:36:04;;;;;;;;;;;;;;;;;;5073646;28;19908;-61
2023/01/01 13:38:29;;;;;;;;;;;;;;;;;;5072754;28;19920;-61
2023/01/01 13:40:54;;;;;;;;;;;;;;;;;;5073717;28;20296;-61
2023/01/01 13:43:19;;;;;;;;;;;;;;;;;;5074364;28;20303;-61
2023/01/01 13:45:50;;;;;;;;;;;;;;;;;;5082942;28;19912;-61
2023/01/01 13:48:15;;;;;;;;;;;;;;;;;;5073647;28;19934;-61
2023/01/01 13:50:40;;;;;;;;;;;;;;;;;;5069933;28;19912;-61
2023/01/01 13:53:05;;;;;;;;;;;;;;;;;;5072865;28;19971;-62
2023/01/01 13:55:31;;;;;;;;;;;;;;;;;;5073564;28;19917;-61
2023/01/01 13:57:56;;;;;;;;;;;;;;;;;;5074489;28;19909;-61
2023/01/01 14:00:21;;;;;;;;;;;;;;;;;;5070563;28;20062;-62
2023/01/01 14:02:46;;;;;;;;;;;;;;;;;;5069640;28;19986;-61
2023/01/01 14:05:11;;;;;;;;;;;;;;;;;;5073030;28;20377;-61
2023/01/01 14:07:37;;;;;;;;;;;;;;;;;;5071873;28;19920;-61
2023/01/01 14:10:02;;;;;;;;;;;;;;;;;;5073833;28;19920;-61
2023/01/01 14:12:27;;;;;;;;;;;;;;;;;;5077390;28;19912;-61
2023/01/01 14:14:52;;;;;;;;;;;;;;;;;;5072144;28;19991;-61
2023/01/01 14:17:17;;;;;;;;;;;;;;;;;;5065298;28;19959;-61
2023/01/01 14:19:42;;;;;;;;;;;;;;;;;;5070373;28;19921;-62
2023/01/01 14:22:07;;;;;;;;;;;;;;;;;;5076841;28;19916;-62
2023/01/01 14:24:33;;;;;;;;;;;;;;;;;;5067791;28;19928;-62
2023/01/01 14:26:58;;;;;;;;;;;;;;;;;;5086314;28;20369;-62
2023/01/01 14:29:23;;;;;;;;;;;;;;;;;;5077034;28;19920;-62
2023/01/01 14:31:48;;;;;;;;;;;;;;;;;;5073153;28;20373;-62
2023/01/01 14:34:14;;;;;;;;;;;;;;;;;;5076798;28;19920;-62
2023/01/01 14:36:39;;;;;;;;;;;;;;;;;;5073658;28;19908;-62
2023/01/01 14:39:04;;;;;;;;;;;;;;;;;;5105739;28;19916;-63
2023/01/01 14:41:29;;;;;;;;;;;;;;;;;;5071831;28;20395;-62
2023/01/01 14:43:54;;;;;;;;;;;;;;;;;;5072337;28;20436;-62
2023/01/01 14:46:19;;;;;;;;;;;;;;;;;;5064375;28;19912;-62
2023/01/01 14:48:44;;;;;;;;;;;;;;;;;;5064829;28;19916;-62
2023/01/01 14:51:10;;;;;;;;;;;;;;;;;;5071831;28;19931;-62
2023/01/01 14:53:35;;;;;;;;;;;;;;;;;;5070465;28;20335;-62
2023/01/01 14:56:01;;;;;;;;;;;;;;;;;;5072787;28;20384;-62
2023/01/01 14:58:27;;;;;;;;;;;;;;;;;;5073666;28;19916;-62
2023/01/01 15:00:52;;;;;;;;;;;;;;;;;;5073211;28;19912;-62
2023/01/01 15:03:17;;;;;;;;;;;;;;;;;;5070817;28;20384;-62
2023/01/01 15:05:42;;;;;;;;;;;;;;;;;;5072999;28;19909;-62
2023/01/01 15:08:08;;;;;;;;;;;;;;;;;;5072609;28;19914;-62
2023/01/01 15:10:33;;;;;;;;;;;;;;;;;;5067488;28;20296;-61
2023/01/01 15:12:58;;;;;;;;;;;;;;;;;;5066597;28;20088;-61
2023/01/01 15:15:23;;;;;;;;;;;;;;;;;;5087858;28;20344;-62
2023/01/01 15:17:48;;;;;;;;;;;;;;;;;;5059034;28;19923;-61
2023/01/01 15:20:13;;;;;;;;;;;;;;;;;;5061528;28;19999;-61
2023/01/01 15:22:38;;;;;;;;;;;;;;;;;;5065162;28;19962;-62
2023/01/01 15:25:04;;;;;;;;;;;;;;;;;;5068435;28;20388;-62
2023/01/01 15:27:29;;;;;;;;;;;;;;;;;;5067383;28;19966;-61
2023/01/01 15:29:56;;;;;;;;;;;;;;;;;;5093500;28;21512;-62
2023/01/01 15:32:21;;;;;;;;;;;;;;;;;;5057367;28;19920;-62
2023/01/01 15:34:46;;;;;;;;;;;;;;;;;;5077452;28;19912;-62
2023/01/01 15:37:11;;;;;;;;;;;;;;;;;;5069874;28;19916;-62
2023/01/01 15:39:36;;;;;;;;;;;;;;;;;;5087614;28;19961;-62
2023/01/01 15:42:01;;;;;;;;;;;;;;;;;;5069808;28;19932;-62
2023/01/01 15:44:27;;;;;;;;;;;;;;;;;;5064784;28;20003;-62
2023/01/01 15:46:52;;;;;;;;;;;;;;;;;;5055463;28;19913;-61
2023/01/01 15:49:17;;;;;;;;;;;;;;;;;;5062161;28;19956;-61
2023/01/01 15:51:42;;;;;;;;;;;;;;;;;;5066057;28;19916;-62
2023/01/01 15:54:07;;;;;;;;;;;;;;;;;;5072592;28;19912;-62
2023/01/01 15:56:32;;;;;;;;;;;;;;;;;;5078954;28;19921;-62
2023/01/01 15:58:58;;;;;;;;;;;;;;;;;;5052467;28;19916;-62
2023/01/01 16:01:23;;;;;;;;;;;;;;;;;;5062075;28;19921;-62
2023/01/01 16:03:49;;;;;;;;;;;;;;;;;;5062942;28;19923;-62
2023/01/01 16:06:14;;;;;;;;;;;;;;;;;;5069172;28;19919;-62
2023/01/01 16:08:39;;;;;;;;;;;;;;;;;;5069551;28;20381;-62
2023/01/01 16:11:04;;;;;;;;;;;;;;;;;;5070535;28;19916;-61
2023/01/01 16:13:29;;;;;;;;;;;;;;;;;;5070061;28;19919;-62
2023/01/01 16:15:54;;;;;;;;;;;;;;;;;;5064491;28;19917;-62
2023/01/01 16:18:19;;;;;;;;;;;;;;;;;;5069874;28;19913;-61
2023/01/01 16:20:45;;;;;;;;;;;;;;;;;;5071914;28;19908;-62
2023/01/01 16:23:10;;;;;;;;;;;;;;;;;;5063085;28;19919;-62
2023/01/01 16:25:35;;;;;;;;;;;;;;;;;;5068141;28;19917;-61
2023/01/01 16:28:00;;;;;;;;;;;;;;;;;;5066951;28;19913;-61
2023/01/01 16:33:06;;;;;;;;;;;;;;;;;;5121818;22;19935;-84
2023/01/01 16:35:31;;;;;;;;;;;;;;;;;;5012721;28;20370;-82
2023/01/01 16:37:57;;;;;;;;;;;;;;;;;;5036562;28;19913;-80
2023/01/01 16:40:22;;;;;;;;;;;;;;;;;;5039123;28;19913;-81
2023/01/01 16:42:47;;;;;;;;;;;;;;;;;;5036102;28;19913;-81